createdAt,value
2022-08-11T00:00:00.231Z,13.0
2022-08-11T00:05:00.174Z,12.8
2022-08-11T00:10:00.210Z,12.7
2022-08-11T00:15:00.211Z,12.7
2022-08-11T00:20:11.758Z,13.0
2022-08-11T00:25:02.704Z,12.9
2022-08-11T00:30:00.219Z,13.1
2022-08-11T00:35:55.788Z,13.0
2022-08-11T00:40:00.360Z,13.1
2022-08-11T00:45:00.177Z,12.9
2022-08-11T00:50:00.212Z,13.0
2022-08-11T00:55:00.187Z,13.2
2022-08-11T01:00:00.207Z,13.2
2022-08-11T01:05:00.173Z,13.2
2022-08-11T01:10:05.124Z,13.1
2022-08-11T01:15:00.174Z,13.4
2022-08-11T01:20:44.865Z,13.2
2022-08-11T01:25:00.187Z,13.3
2022-08-11T01:30:00.185Z,13.5
2022-08-11T01:35:00.183Z,13.4
2022-08-11T01:40:00.207Z,13.4
2022-08-11T01:45:00.188Z,13.5
2022-08-11T01:50:09.336Z,13.5
2022-08-11T01:55:00.183Z,13.5
2022-08-11T02:00:00.206Z,13.5
2022-08-11T02:05:00.153Z,13.5
2022-08-11T02:10:00.166Z,13.5
2022-08-11T02:15:05.111Z,13.4
2022-08-11T02:20:00.202Z,13.4
2022-08-11T02:25:00.168Z,13.5
2022-08-11T02:30:00.180Z,13.6
2022-08-11T02:35:00.654Z,13.5
2022-08-11T02:40:00.191Z,13.5
2022-08-11T02:45:00.189Z,13.4
2022-08-11T02:50:06.711Z,13.5
2022-08-11T02:55:00.181Z,13.6
2022-08-11T03:00:00.228Z,13.7
2022-08-11T03:05:00.202Z,13.7
2022-08-11T03:10:00.174Z,13.4
2022-08-11T03:15:00.184Z,13.4
2022-08-11T03:20:00.224Z,13.4
2022-08-11T03:25:00.187Z,13.6
2022-08-11T03:30:00.197Z,13.6
2022-08-11T03:35:00.173Z,13.5
2022-08-11T03:40:00.358Z,13.6
2022-08-11T03:45:00.179Z,13.4
2022-08-11T03:50:00.173Z,13.6
2022-08-11T03:55:00.185Z,13.5
2022-08-11T04:00:00.249Z,13.5
2022-08-11T04:05:00.224Z,13.4
2022-08-11T04:10:00.200Z,13.4
2022-08-11T04:15:00.188Z,13.4
2022-08-11T04:20:00.197Z,13.3
2022-08-11T04:25:00.183Z,13.3
2022-08-11T04:30:05.273Z,13.3
2022-08-11T04:35:00.200Z,13.4
2022-08-11T04:40:00.197Z,13.4
2022-08-11T04:45:00.187Z,13.4
2022-08-11T04:50:00.206Z,13.4
2022-08-11T04:55:00.184Z,13.5
2022-08-11T05:00:00.254Z,13.5
2022-08-11T05:05:00.225Z,13.6
2022-08-11T05:10:00.204Z,13.5
2022-08-11T05:15:00.239Z,13.8
2022-08-11T05:20:00.179Z,13.7
2022-08-11T05:25:00.200Z,14.0
2022-08-11T05:30:00.317Z,13.8
2022-08-11T05:35:00.194Z,14.0
2022-08-11T05:40:00.377Z,14.3
2022-08-11T05:45:00.194Z,14.2
2022-08-11T05:50:00.215Z,14.2
2022-08-11T05:55:05.928Z,14.3
2022-08-11T06:00:00.268Z,14.3
2022-08-11T06:05:00.218Z,14.4
2022-08-11T06:10:00.212Z,14.3
2022-08-11T06:15:00.242Z,14.4
2022-08-11T06:20:07.188Z,14.6
2022-08-11T06:25:00.220Z,14.3
2022-08-11T06:30:00.184Z,14.6
2022-08-11T06:35:00.225Z,14.5
2022-08-11T06:40:00.451Z,14.4
2022-08-11T06:45:00.186Z,14.7
2022-08-11T06:50:00.194Z,14.6
2022-08-11T06:55:00.199Z,14.6
2022-08-11T07:00:00.235Z,14.6
2022-08-11T07:05:00.231Z,14.6
2022-08-11T07:10:00.207Z,14.6
2022-08-11T07:15:00.835Z,14.2
2022-08-11T07:20:00.298Z,14.6
2022-08-11T07:25:03.109Z,14.8
2022-08-11T07:30:00.191Z,14.4
2022-08-11T07:35:00.210Z,14.5
2022-08-11T07:40:00.336Z,14.2
2022-08-11T07:45:00.191Z,15.2
2022-08-11T07:50:00.191Z,14.7
2022-08-11T07:55:00.526Z,14.3
2022-08-11T08:00:04.233Z,14.8
2022-08-11T08:05:00.186Z,14.5
2022-08-11T08:10:00.204Z,14.0
2022-08-11T08:15:01.148Z,15.2
2022-08-11T08:20:00.200Z,14.9
2022-08-11T08:25:00.183Z,14.5
2022-08-11T08:30:00.211Z,14.3
2022-08-11T08:35:00.224Z,14.1
2022-08-11T08:40:00.233Z,13.2
2022-08-11T08:45:00.194Z,14.2
2022-08-11T08:50:00.192Z,13.2
2022-08-11T08:55:00.217Z,13.0
2022-08-11T09:00:00.218Z,12.9
2022-08-11T09:05:00.354Z,13.9
2022-08-11T09:10:00.194Z,14.1
2022-08-11T09:15:00.200Z,12.9
2022-08-11T09:20:00.198Z,13.1
2022-08-11T09:25:00.225Z,12.3
2022-08-11T09:30:00.207Z,13.1
2022-08-11T09:35:00.229Z,12.7
2022-08-11T09:40:00.229Z,12.4
2022-08-11T09:45:00.937Z,12.3
2022-08-11T09:50:01.051Z,11.6
2022-08-11T09:55:01.859Z,11.2
2022-08-11T10:00:11.408Z,12.4
2022-08-11T10:05:00.212Z,11.3
2022-08-11T10:10:00.233Z,12.8
2022-08-11T10:15:00.197Z,11.2
2022-08-11T10:20:04.990Z,11.4
2022-08-11T10:25:00.205Z,11.0
2022-08-11T10:30:00.190Z,11.4
2022-08-11T10:35:00.196Z,10.0
2022-08-11T10:40:00.190Z,10.8
2022-08-11T10:45:00.200Z,10.0
2022-08-11T10:50:00.206Z,10.9
2022-08-11T10:55:00.198Z,9.5
2022-08-11T11:00:00.249Z,11.5
2022-08-11T11:05:00.193Z,10.1
2022-08-11T11:10:00.177Z,11.1
2022-08-11T11:15:00.263Z,10.6
2022-08-11T11:20:00.188Z,11.6
2022-08-11T11:25:00.209Z,11.1
2022-08-11T11:30:00.203Z,10.7
2022-08-11T11:35:00.216Z,9.1
2022-08-11T11:40:00.221Z,10.2
2022-08-11T11:45:01.417Z,9.9
2022-08-11T11:50:00.201Z,10.0
2022-08-11T11:55:00.193Z,9.6
2022-08-11T12:00:00.226Z,9.5
2022-08-11T12:05:00.194Z,10.3
2022-08-11T12:10:00.274Z,9.5
2022-08-11T12:15:00.200Z,9.8
2022-08-11T12:20:00.207Z,10.2
2022-08-11T12:25:00.210Z,11.1
2022-08-11T12:30:00.255Z,10.5
2022-08-11T12:35:00.211Z,9.4
2022-08-11T12:40:16.909Z,10.8
2022-08-11T12:45:00.223Z,10.3
2022-08-11T12:50:00.193Z,11.1
2022-08-11T12:55:00.258Z,10.3
2022-08-11T13:00:00.238Z,9.2
2022-08-11T13:05:00.209Z,8.7
2022-08-11T13:10:00.194Z,9.9
2022-08-11T13:15:00.204Z,8.6
2022-08-11T13:20:00.196Z,9.1
2022-08-11T13:25:00.198Z,9.2
2022-08-11T13:30:00.181Z,10.8
2022-08-11T13:35:00.202Z,7.7
2022-08-11T13:40:00.394Z,9.0
2022-08-11T13:45:00.205Z,8.7
2022-08-11T13:50:00.204Z,10.8
2022-08-11T13:55:00.173Z,8.4
2022-08-11T14:00:00.263Z,8.1
2022-08-11T14:05:00.214Z,8.8
2022-08-11T14:10:00.215Z,9.8
2022-08-11T14:15:04.444Z,9.6
2022-08-11T14:20:00.209Z,10.0
2022-08-11T14:25:00.186Z,8.7
2022-08-11T14:30:00.240Z,8.1
2022-08-11T14:35:00.214Z,9.0
2022-08-11T14:40:03.830Z,11.4
2022-08-11T14:45:00.214Z,9.0
2022-08-11T14:50:11.465Z,10.3
2022-08-11T14:55:00.206Z,9.2
2022-08-11T15:00:00.299Z,9.7
2022-08-11T15:05:00.196Z,9.3
2022-08-11T15:10:13.531Z,9.8
2022-08-11T15:15:00.212Z,11.1
2022-08-11T15:20:00.396Z,9.9
2022-08-11T15:25:00.278Z,10.1
2022-08-11T15:30:00.401Z,9.8
2022-08-11T15:35:03.700Z,8.8
2022-08-11T15:40:00.366Z,10.8
2022-08-11T15:45:03.256Z,8.9
2022-08-11T15:50:10.637Z,9.9
2022-08-11T15:55:00.216Z,8.5
2022-08-11T16:00:00.255Z,9.6
2022-08-11T16:05:00.175Z,11.7
2022-08-11T16:10:00.658Z,9.8
2022-08-11T16:15:00.240Z,9.5
2022-08-11T16:20:00.208Z,9.1
2022-08-11T16:27:05.338Z,11.3
2022-08-11T16:30:00.192Z,9.9
2022-08-11T16:35:00.222Z,9.5
2022-08-11T16:40:00.298Z,10.6
2022-08-11T16:45:00.205Z,9.7
2022-08-11T16:50:00.210Z,9.4
2022-08-11T16:55:00.172Z,9.4
2022-08-11T17:00:00.232Z,9.9
2022-08-11T17:05:00.228Z,10.3
2022-08-11T17:10:00.200Z,10.4
2022-08-11T17:15:00.207Z,10.3
2022-08-11T17:20:38.250Z,10.1
2022-08-11T17:25:00.232Z,10.1
2022-08-11T17:30:00.205Z,10.6
2022-08-11T17:35:00.191Z,9.9
2022-08-11T17:40:00.280Z,10.8
2022-08-11T17:45:00.235Z,10.1
2022-08-11T17:50:09.170Z,10.0
2022-08-11T17:55:00.177Z,10.5
2022-08-11T18:00:00.243Z,9.8
2022-08-11T18:05:00.179Z,9.9
2022-08-11T18:10:00.180Z,10.4
2022-08-11T18:15:00.301Z,10.5
2022-08-11T18:20:00.205Z,10.1
2022-08-11T18:25:00.181Z,10.5
2022-08-11T18:30:00.199Z,10.7
2022-08-11T18:35:00.165Z,10.5
2022-08-11T18:40:00.317Z,11.5
2022-08-11T18:45:00.187Z,10.6
2022-08-11T18:50:03.557Z,11.2
2022-08-11T18:55:00.222Z,10.9
2022-08-11T19:00:00.231Z,10.3
2022-08-11T19:05:00.187Z,10.5
2022-08-11T19:10:00.190Z,11.4
2022-08-11T19:15:00.214Z,10.9
2022-08-11T19:20:00.199Z,11.1
2022-08-11T19:25:00.192Z,10.5
2022-08-11T19:30:05.004Z,10.7
2022-08-11T19:35:00.187Z,10.5
2022-08-11T19:40:00.332Z,11.0
2022-08-11T19:45:00.226Z,11.2
2022-08-11T19:50:00.198Z,11.1
2022-08-11T19:55:00.180Z,11.6
2022-08-11T20:00:00.244Z,10.7
2022-08-11T20:05:00.204Z,11.0
2022-08-11T20:10:04.957Z,10.5
2022-08-11T20:15:00.193Z,10.6
2022-08-11T20:25:00.177Z,11.4
2022-08-11T20:30:00.199Z,11.6
2022-08-11T20:35:00.186Z,12.1
2022-08-11T20:40:00.209Z,12.9
2022-08-11T20:45:00.191Z,12.2
2022-08-11T20:50:00.172Z,12.7
2022-08-11T20:55:00.760Z,12.8
2022-08-11T21:00:00.194Z,13.3
2022-08-11T21:05:00.607Z,13.0
2022-08-11T21:10:09.428Z,13.0
2022-08-11T21:15:00.183Z,13.4
2022-08-11T21:20:10.843Z,13.5
2022-08-11T21:25:00.147Z,13.4
2022-08-11T21:30:00.198Z,13.6
2022-08-11T21:35:00.150Z,13.5
2022-08-11T21:40:00.396Z,13.5
2022-08-11T21:45:00.201Z,13.4
2022-08-11T21:50:00.208Z,13.4
2022-08-11T21:55:00.163Z,13.5
2022-08-11T22:00:00.268Z,13.7
2022-08-11T22:05:00.219Z,13.6
2022-08-11T22:10:00.173Z,13.8
2022-08-11T22:15:00.207Z,13.3
2022-08-11T22:20:00.919Z,13.4
2022-08-11T22:25:00.187Z,13.4
2022-08-11T22:30:00.195Z,13.6
2022-08-11T22:35:00.189Z,13.4
2022-08-11T22:40:02.760Z,13.3
2022-08-11T22:45:00.187Z,13.9
2022-08-11T22:50:00.219Z,13.8
2022-08-11T22:55:00.173Z,13.4
2022-08-11T23:00:00.208Z,13.3
2022-08-11T23:05:00.196Z,13.7
2022-08-11T23:10:00.187Z,13.6
2022-08-11T23:15:00.267Z,13.7
2022-08-11T23:20:11.881Z,13.6
2022-08-11T23:25:00.219Z,13.9
2022-08-11T23:30:00.246Z,13.6
2022-08-11T23:35:03.791Z,13.6
2022-08-11T23:40:00.249Z,13.6
2022-08-11T23:45:00.202Z,13.5
2022-08-11T23:50:00.233Z,13.6
2022-08-11T23:55:00.173Z,13.5
